sensor_id;sensor_type;location;lat;lon;timestamp;pressure;altitude;pressure_sealevel;temperature;humidity
52625;BME280;38519;52.540;13.410;2022-09-09T00:15:13;100357.59;;;15.18;100.00
52625;BME280;38519;52.540;13.410;2022-09-09T00:18:24;100356.78;;;15.19;100.00
52625;BME280;38519;52.540;13.410;2022-09-09T00:20:30;100356.31;;;15.10;100.00
52625;BME280;38519;52.540;13.410;2022-09-09T00:23:00;100346.59;;;15.07;100.00
52625;BME280;38519;52.540;13.410;2022-09-09T00:27:56;100342.59;;;14.98;100.00
52625;BME280;38519;52.540;13.410;2022-09-09T00:30:23;100349.72;;;15.00;100.00
52625;BME280;38519;52.540;13.410;2022-09-09T00:32:50;100345.72;;;15.08;100.00
52625;BME280;38519;52.540;13.410;2022-09-09T00:37:48;100336.28;;;15.12;100.00
52625;BME280;38519;52.540;13.410;2022-09-09T00:40:22;100340.63;;;15.11;100.00
52625;BME280;38519;52.540;13.410;2022-09-09T00:42:48;100341.25;;;15.06;100.00
52625;BME280;38519;52.540;13.410;2022-09-09T00:48:02;100339.34;;;15.03;100.00
52625;BME280;38519;52.540;13.410;2022-09-09T00:58:06;100345.06;;;14.95;100.00
52625;BME280;38519;52.540;13.410;2022-09-09T01:00:35;100347.31;;;14.87;100.00
52625;BME280;38519;52.540;13.410;2022-09-09T01:05:51;100348.13;;;14.86;100.00
52625;BME280;38519;52.540;13.410;2022-09-09T01:08:57;100346.28;;;14.83;100.00
52625;BME280;38519;52.540;13.410;2022-09-09T01:11:17;100347.25;;;14.85;100.00
52625;BME280;38519;52.540;13.410;2022-09-09T01:13:45;100345.34;;;14.83;100.00
52625;BME280;38519;52.540;13.410;2022-09-09T01:16:13;100356.78;;;14.83;100.00
52625;BME280;38519;52.540;13.410;2022-09-09T01:18:43;100363.84;;;14.84;100.00
52625;BME280;38519;52.540;13.410;2022-09-09T01:28:33;100353.63;;;14.72;100.00
52625;BME280;38519;52.540;13.410;2022-09-09T01:31:00;100350.03;;;14.70;100.00
52625;BME280;38519;52.540;13.410;2022-09-09T01:33:27;100349.47;;;14.60;100.00
52625;BME280;38519;52.540;13.410;2022-09-09T01:35:59;100352.25;;;14.63;100.00
52625;BME280;38519;52.540;13.410;2022-09-09T01:38:28;100352.63;;;14.54;100.00
52625;BME280;38519;52.540;13.410;2022-09-09T01:40:54;100348.31;;;14.54;100.00
52625;BME280;38519;52.540;13.410;2022-09-09T01:43:22;100341.88;;;14.49;100.00
52625;BME280;38519;52.540;13.410;2022-09-09T01:45:49;100346.00;;;14.44;100.00
52625;BME280;38519;52.540;13.410;2022-09-09T01:48:16;100353.16;;;14.47;100.00
52625;BME280;38519;52.540;13.410;2022-09-09T01:50:42;100352.03;;;14.42;100.00
52625;BME280;38519;52.540;13.410;2022-09-09T01:53:08;100352.75;;;14.39;100.00
52625;BME280;38519;52.540;13.410;2022-09-09T01:55:37;100353.50;;;14.36;100.00
52625;BME280;38519;52.540;13.410;2022-09-09T02:00:29;100349.97;;;14.36;100.00
52625;BME280;38519;52.540;13.410;2022-09-09T02:08:10;100348.84;;;14.31;100.00
52625;BME280;38519;52.540;13.410;2022-09-09T02:10:46;100354.75;;;14.27;100.00
52625;BME280;38519;52.540;13.410;2022-09-09T02:13:14;100349.47;;;14.27;100.00
52625;BME280;38519;52.540;13.410;2022-09-09T02:15:45;100362.63;;;14.27;100.00
52625;BME280;38519;52.540;13.410;2022-09-09T02:18:12;100363.38;;;14.24;100.00
52625;BME280;38519;52.540;13.410;2022-09-09T02:20:39;100359.84;;;14.24;100.00
52625;BME280;38519;52.540;13.410;2022-09-09T02:23:06;100369.59;;;14.26;100.00
52625;BME280;38519;52.540;13.410;2022-09-09T02:25:34;100365.16;;;14.25;100.00
52625;BME280;38519;52.540;13.410;2022-09-09T02:28:00;100363.28;;;14.23;100.00
52625;BME280;38519;52.540;13.410;2022-09-09T02:30:27;100371.19;;;14.23;100.00
52625;BME280;38519;52.540;13.410;2022-09-09T02:32:55;100357.97;;;14.21;100.00
52625;BME280;38519;52.540;13.410;2022-09-09T02:35:24;100363.28;;;14.23;100.00
52625;BME280;38519;52.540;13.410;2022-09-09T02:37:52;100367.63;;;14.22;100.00
52625;BME280;38519;52.540;13.410;2022-09-09T02:40:20;100355.34;;;14.21;100.00
52625;BME280;38519;52.540;13.410;2022-09-09T02:42:47;100358.84;;;14.21;100.00
52625;BME280;38519;52.540;13.410;2022-09-09T02:45:17;100360.59;;;14.21;100.00
52625;BME280;38519;52.540;13.410;2022-09-09T02:50:29;100358.84;;;14.21;100.00
52625;BME280;38519;52.540;13.410;2022-09-09T02:57:55;100362.38;;;14.22;100.00
52625;BME280;38519;52.540;13.410;2022-09-09T03:00:25;100354.56;;;14.24;100.00
52625;BME280;38519;52.540;13.410;2022-09-09T03:02:52;100351.81;;;14.20;100.00
52625;BME280;38519;52.540;13.410;2022-09-09T03:05:18;100362.88;;;14.15;100.00
52625;BME280;38519;52.540;13.410;2022-09-09T03:07:44;100355.91;;;14.15;100.00
52625;BME280;38519;52.540;13.410;2022-09-09T03:10:09;100362.16;;;14.17;100.00
52625;BME280;38519;52.540;13.410;2022-09-09T03:12:36;100368.78;;;14.11;100.00
52625;BME280;38519;52.540;13.410;2022-09-09T03:15:01;100365.28;;;14.10;100.00
52625;BME280;38519;52.540;13.410;2022-09-09T03:17:27;100379.28;;;14.11;100.00
52625;BME280;38519;52.540;13.410;2022-09-09T03:19:53;100375.78;;;14.10;100.00
52625;BME280;38519;52.540;13.410;2022-09-09T03:22:20;100380.28;;;14.13;100.00
52625;BME280;38519;52.540;13.410;2022-09-09T03:24:46;100382.66;;;14.08;100.00
52625;BME280;38519;52.540;13.410;2022-09-09T03:27:12;100379.88;;;14.05;100.00
52625;BME280;38519;52.540;13.410;2022-09-09T03:29:39;100384.31;;;14.06;100.00
52625;BME280;38519;52.540;13.410;2022-09-09T03:32:04;100384.31;;;14.06;100.00
52625;BME280;38519;52.540;13.410;2022-09-09T03:34:30;100387.91;;;14.08;100.00
52625;BME280;38519;52.540;13.410;2022-09-09T03:36:56;100380.84;;;14.07;100.00
52625;BME280;38519;52.540;13.410;2022-09-09T03:39:21;100385.13;;;14.05;100.00
52625;BME280;38519;52.540;13.410;2022-09-09T03:41:47;100375.59;;;14.07;100.00
52625;BME280;38519;52.540;13.410;2022-09-09T03:44:13;100379.47;;;13.97;100.00
52625;BME280;38519;52.540;13.410;2022-09-09T03:46:39;100384.63;;;13.96;100.00
52625;BME280;38519;52.540;13.410;2022-09-09T03:49:04;100380.28;;;13.96;100.00
52625;BME280;38519;52.540;13.410;2022-09-09T03:51:30;100387.25;;;13.96;100.00
52625;BME280;38519;52.540;13.410;2022-09-09T03:53:55;100383.66;;;13.94;100.00
52625;BME280;38519;52.540;13.410;2022-09-09T03:56:23;100390.94;;;13.99;100.00
52625;BME280;38519;52.540;13.410;2022-09-09T03:58:49;100396.69;;;14.09;100.00
52625;BME280;38519;52.540;13.410;2022-09-09T04:01:14;100390.53;;;14.08;100.00
52625;BME280;38519;52.540;13.410;2022-09-09T04:03:40;100384.63;;;14.12;100.00
52625;BME280;38519;52.540;13.410;2022-09-09T04:06:06;100381.63;;;14.05;100.00
52625;BME280;38519;52.540;13.410;2022-09-09T04:08:33;100384.25;;;14.05;100.00
52625;BME280;38519;52.540;13.410;2022-09-09T04:10:58;100379.06;;;14.06;100.00
52625;BME280;38519;52.540;13.410;2022-09-09T04:13:25;100380.53;;;14.01;100.00
52625;BME280;38519;52.540;13.410;2022-09-09T04:15:54;100379.63;;;14.00;100.00
52625;BME280;38519;52.540;13.410;2022-09-09T04:18:20;100372.41;;;13.96;100.00
52625;BME280;38519;52.540;13.410;2022-09-09T04:20:47;100375.69;;;13.92;100.00
52625;BME280;38519;52.540;13.410;2022-09-09T04:23:13;100379.88;;;13.89;100.00
52625;BME280;38519;52.540;13.410;2022-09-09T04:25:42;100379.03;;;13.90;100.00
52625;BME280;38519;52.540;13.410;2022-09-09T04:28:08;100380.94;;;13.92;100.00
52625;BME280;38519;52.540;13.410;2022-09-09T04:30:34;100384.47;;;13.93;100.00
52625;BME280;38519;52.540;13.410;2022-09-09T04:33:01;100387.94;;;13.92;100.00
52625;BME280;38519;52.540;13.410;2022-09-09T04:35:26;100384.38;;;13.91;100.00
52625;BME280;38519;52.540;13.410;2022-09-09T04:37:52;100394.31;;;13.97;100.00
52625;BME280;38519;52.540;13.410;2022-09-09T04:40:17;100393.66;;;14.01;100.00
52625;BME280;38519;52.540;13.410;2022-09-09T04:42:45;100397.28;;;14.03;100.00
52625;BME280;38519;52.540;13.410;2022-09-09T04:45:13;100391.44;;;14.09;100.00
52625;BME280;38519;52.540;13.410;2022-09-09T04:47:39;100398.00;;;14.17;100.00
52625;BME280;38519;52.540;13.410;2022-09-09T04:50:04;100396.13;;;14.14;100.00
52625;BME280;38519;52.540;13.410;2022-09-09T04:52:30;100398.94;;;14.17;100.00
52625;BME280;38519;52.540;13.410;2022-09-09T04:54:55;100403.25;;;14.17;100.00
52625;BME280;38519;52.540;13.410;2022-09-09T04:57:21;100410.88;;;14.12;100.00
52625;BME280;38519;52.540;13.410;2022-09-09T04:59:46;100415.97;;;14.09;100.00
52625;BME280;38519;52.540;13.410;2022-09-09T05:02:13;100413.34;;;14.09;100.00
52625;BME280;38519;52.540;13.410;2022-09-09T05:04:38;100422.47;;;14.16;100.00
52625;BME280;38519;52.540;13.410;2022-09-09T05:07:03;100420.91;;;14.19;100.00
52625;BME280;38519;52.540;13.410;2022-09-09T05:09:29;100425.25;;;14.19;100.00
52625;BME280;38519;52.540;13.410;2022-09-09T05:11:55;100421.53;;;14.15;100.00
52625;BME280;38519;52.540;13.410;2022-09-09T05:14:21;100422.56;;;14.17;100.00
52625;BME280;38519;52.540;13.410;2022-09-09T05:16:47;100427.63;;;14.14;100.00
52625;BME280;38519;52.540;13.410;2022-09-09T05:19:15;100424.44;;;14.20;100.00
52625;BME280;38519;52.540;13.410;2022-09-09T05:21:44;100425.47;;;14.24;100.00
52625;BME280;38519;52.540;13.410;2022-09-09T05:24:09;100413.91;;;14.20;100.00
52625;BME280;38519;52.540;13.410;2022-09-09T05:26:35;100413.59;;;14.30;100.00
52625;BME280;38519;52.540;13.410;2022-09-09T05:29:00;100417.28;;;14.34;100.00
52625;BME280;38519;52.540;13.410;2022-09-09T05:31:26;100413.59;;;14.30;100.00
52625;BME280;38519;52.540;13.410;2022-09-09T05:33:54;100415.63;;;14.36;100.00
52625;BME280;38519;52.540;13.410;2022-09-09T05:36:21;100418.19;;;14.34;100.00
52625;BME280;38519;52.540;13.410;2022-09-09T05:38:47;100424.28;;;14.33;100.00
52625;BME280;38519;52.540;13.410;2022-09-09T05:41:13;100417.94;;;14.30;100.00
52625;BME280;38519;52.540;13.410;2022-09-09T05:43:41;100417.69;;;14.25;100.00
52625;BME280;38519;52.540;13.410;2022-09-09T05:46:10;100417.94;;;14.30;100.00
52625;BME280;38519;52.540;13.410;2022-09-09T05:48:43;100412.59;;;14.28;100.00
52625;BME280;38519;52.540;13.410;2022-09-09T05:51:10;100416.16;;;14.29;100.00
52625;BME280;38519;52.540;13.410;2022-09-09T05:53:41;100419.91;;;14.34;100.00
52625;BME280;38519;52.540;13.410;2022-09-09T05:56:07;100419.16;;;14.36;100.00
52625;BME280;38519;52.540;13.410;2022-09-09T05:58:35;100420.97;;;14.37;100.00
52625;BME280;38519;52.540;13.410;2022-09-09T06:01:10;100427.59;;;14.47;100.00
52625;BME280;38519;52.540;13.410;2022-09-09T06:03:37;100426.13;;;14.52;100.00
52625;BME280;38519;52.540;13.410;2022-09-09T06:06:03;100425.22;;;14.68;100.00
52625;BME280;38519;52.540;13.410;2022-09-09T06:08:33;100429.50;;;14.66;100.00
52625;BME280;38519;52.540;13.410;2022-09-09T06:11:05;100442.66;;;14.66;100.00
52625;BME280;38519;52.540;13.410;2022-09-09T06:13:31;100436.75;;;14.70;100.00
52625;BME280;38519;52.540;13.410;2022-09-09T06:15:57;100444.72;;;14.72;100.00
52625;BME280;38519;52.540;13.410;2022-09-09T06:18:23;100448.16;;;14.71;100.00
52625;BME280;38519;52.540;13.410;2022-09-09T06:20:55;100449.28;;;14.76;100.00
52625;BME280;38519;52.540;13.410;2022-09-09T06:23:21;100440.75;;;14.80;100.00
52625;BME280;38519;52.540;13.410;2022-09-09T06:25:46;100452.56;;;14.88;100.00
52625;BME280;38519;52.540;13.410;2022-09-09T06:28:12;100445.47;;;14.87;100.00
52625;BME280;38519;52.540;13.410;2022-09-09T06:30:38;100442.84;;;14.87;100.00
52625;BME280;38519;52.540;13.410;2022-09-09T06:33:05;100437.25;;;14.98;100.00
52625;BME280;38519;52.540;13.410;2022-09-09T06:35:30;100439.19;;;15.02;100.00
52625;BME280;38519;52.540;13.410;2022-09-09T06:37:55;100442.13;;;15.08;100.00
52625;BME280;38519;52.540;13.410;2022-09-09T06:40:21;100453.94;;;15.16;100.00
52625;BME280;38519;52.540;13.410;2022-09-09T06:42:46;100457.84;;;15.24;100.00
52625;BME280;38519;52.540;13.410;2022-09-09T06:45:12;100456.72;;;15.37;100.00
52625;BME280;38519;52.540;13.410;2022-09-09T06:47:38;100469.47;;;15.46;100.00
52625;BME280;38519;52.540;13.410;2022-09-09T06:50:03;100466.06;;;15.48;100.00
52625;BME280;38519;52.540;13.410;2022-09-09T06:52:30;100461.88;;;15.52;100.00
52625;BME280;38519;52.540;13.410;2022-09-09T06:54:56;100457.09;;;15.63;100.00
52625;BME280;38519;52.540;13.410;2022-09-09T06:57:23;100453.03;;;15.70;100.00
52625;BME280;38519;52.540;13.410;2022-09-09T06:59:49;100465.16;;;15.84;100.00
52625;BME280;38519;52.540;13.410;2022-09-09T07:02:14;100456.81;;;15.93;100.00
52625;BME280;38519;52.540;13.410;2022-09-09T07:04:40;100451.31;;;15.88;100.00
52625;BME280;38519;52.540;13.410;2022-09-09T07:07:05;100450.16;;;16.01;100.00
52625;BME280;38519;52.540;13.410;2022-09-09T07:09:31;100450.66;;;16.12;100.00
52625;BME280;38519;52.540;13.410;2022-09-09T07:11:57;100454.00;;;16.27;100.00
52625;BME280;38519;52.540;13.410;2022-09-09T07:14:23;100459.53;;;16.33;100.00
52625;BME280;38519;52.540;13.410;2022-09-09T07:16:50;100459.81;;;16.39;100.00
52625;BME280;38519;52.540;13.410;2022-09-09T07:19:15;100459.53;;;16.53;100.00
52625;BME280;38519;52.540;13.410;2022-09-09T07:21:41;100459.13;;;16.63;100.00
52625;BME280;38519;52.540;13.410;2022-09-09T07:24:07;100463.47;;;16.63;100.00
52625;BME280;38519;52.540;13.410;2022-09-09T07:26:35;100455.97;;;16.72;100.00
52625;BME280;38519;52.540;13.410;2022-09-09T07:29:01;100457.34;;;16.83;100.00
52625;BME280;38519;52.540;13.410;2022-09-09T07:31:30;100472.72;;;16.92;100.00
52625;BME280;38519;52.540;13.410;2022-09-09T07:33:56;100474.09;;;17.03;100.00
52625;BME280;38519;52.540;13.410;2022-09-09T07:36:26;100471.88;;;17.14;99.19
52625;BME280;38519;52.540;13.410;2022-09-09T07:38:53;100472.28;;;17.23;98.75
52625;BME280;38519;52.540;13.410;2022-09-09T07:43:45;100463.38;;;17.42;96.60
52625;BME280;38519;52.540;13.410;2022-09-09T07:46:12;100469.91;;;17.73;95.19
52625;BME280;38519;52.540;13.410;2022-09-09T07:48:39;100472.00;;;18.03;93.38
52625;BME280;38519;52.540;13.410;2022-09-09T07:51:10;100465.16;;;18.32;90.52
52625;BME280;38519;52.540;13.410;2022-09-09T07:53:37;100470.13;;;18.47;90.42
52625;BME280;38519;52.540;13.410;2022-09-09T07:56:11;100469.16;;;18.45;89.40
52625;BME280;38519;52.540;13.410;2022-09-09T07:58:37;100479.97;;;18.51;89.65
52625;BME280;38519;52.540;13.410;2022-09-09T08:01:06;100475.63;;;18.53;88.72
52625;BME280;38519;52.540;13.410;2022-09-09T08:03:32;100478.69;;;18.64;88.25
52625;BME280;38519;52.540;13.410;2022-09-09T08:06:01;100461.13;;;18.66;88.69
52625;BME280;38519;52.540;13.410;2022-09-09T08:08:27;100473.78;;;18.75;89.08
52625;BME280;38519;52.540;13.410;2022-09-09T08:10:53;100469.38;;;18.75;87.49
52625;BME280;38519;52.540;13.410;2022-09-09T08:13:18;100480.13;;;18.80;87.29
52625;BME280;38519;52.540;13.410;2022-09-09T08:15:44;100481.78;;;18.77;87.99
52625;BME280;38519;52.540;13.410;2022-09-09T08:18:09;100483.09;;;18.64;88.67
52625;BME280;38519;52.540;13.410;2022-09-09T08:20:35;100485.84;;;18.67;89.40
52625;BME280;38519;52.540;13.410;2022-09-09T08:23:01;100488.44;;;18.65;88.77
52625;BME280;38519;52.540;13.410;2022-09-09T08:25:26;100483.19;;;18.67;89.02
52625;BME280;38519;52.540;13.410;2022-09-09T08:27:53;100489.09;;;18.60;89.53
52625;BME280;38519;52.540;13.410;2022-09-09T08:30:19;100490.03;;;18.62;89.34
52625;BME280;38519;52.540;13.410;2022-09-09T08:32:44;100487.19;;;18.55;90.04
52625;BME280;38519;52.540;13.410;2022-09-09T08:35:10;100482.38;;;18.45;90.60
52625;BME280;38519;52.540;13.410;2022-09-09T08:37:35;100478.91;;;18.46;90.49
52625;BME280;38519;52.540;13.410;2022-09-09T08:40:01;100484.91;;;18.42;91.21
52625;BME280;38519;52.540;13.410;2022-09-09T08:42:46;100486.28;;;18.55;90.88
52625;BME280;38519;52.540;13.410;2022-09-09T08:45:28;100489.78;;;18.54;90.94
52625;BME280;38519;52.540;13.410;2022-09-09T08:48:13;100488.81;;;18.52;91.18
52625;BME280;38519;52.540;13.410;2022-09-09T08:50:41;100499.19;;;18.47;90.18
52625;BME280;38519;52.540;13.410;2022-09-09T08:55:45;100492.63;;;18.60;90.74
52625;BME280;38519;52.540;13.410;2022-09-09T08:58:18;100489.44;;;18.69;90.83
52625;BME280;38519;52.540;13.410;2022-09-09T09:00:47;100492.56;;;18.83;90.11
52625;BME280;38519;52.540;13.410;2022-09-09T09:08:47;100496.19;;;19.09;87.24
52625;BME280;38519;52.540;13.410;2022-09-09T09:11:18;100499.22;;;19.20;86.97
52625;BME280;38519;52.540;13.410;2022-09-09T09:13:55;100502.03;;;19.26;85.96
52625;BME280;38519;52.540;13.410;2022-09-09T09:19:01;100496.53;;;19.73;81.75
52625;BME280;38519;52.540;13.410;2022-09-09T09:24:18;100499.16;;;19.98;80.34
52625;BME280;38519;52.540;13.410;2022-09-09T09:26:44;100499.22;;;20.01;79.88
52625;BME280;38519;52.540;13.410;2022-09-09T09:29:10;100497.78;;;20.11;79.69
52625;BME280;38519;52.540;13.410;2022-09-09T09:31:37;100500.28;;;20.35;79.14
52625;BME280;38519;52.540;13.410;2022-09-09T09:34:02;100493.84;;;20.59;78.01
52625;BME280;38519;52.540;13.410;2022-09-09T09:37:01;100500.44;;;20.72;78.10
52625;BME280;38519;52.540;13.410;2022-09-09T09:39:24;100497.66;;;20.67;76.78
52625;BME280;38519;52.540;13.410;2022-09-09T09:41:50;100495.00;;;20.67;77.24
52625;BME280;38519;52.540;13.410;2022-09-09T09:44:22;100495.59;;;20.57;76.18
52625;BME280;38519;52.540;13.410;2022-09-09T09:46:48;100495.22;;;20.45;77.37
52625;BME280;38519;52.540;13.410;2022-09-09T09:49:14;100494.47;;;20.49;77.37
52625;BME280;38519;52.540;13.410;2022-09-09T09:51:39;100490.97;;;20.50;75.71
52625;BME280;38519;52.540;13.410;2022-09-09T09:56:31;100503.53;;;20.57;75.60
52625;BME280;38519;52.540;13.410;2022-09-09T09:58:57;100503.94;;;20.41;76.91
52625;BME280;38519;52.540;13.410;2022-09-09T10:01:25;100497.22;;;20.52;77.18
52625;BME280;38519;52.540;13.410;2022-09-09T10:03:54;100492.78;;;20.52;77.41
52625;BME280;38519;52.540;13.410;2022-09-09T10:06:33;100496.41;;;20.24;78.61
52625;BME280;38519;52.540;13.410;2022-09-09T10:08:59;100496.56;;;20.30;80.58
52625;BME280;38519;52.540;13.410;2022-09-09T10:11:39;100500.78;;;20.54;77.08
52625;BME280;38519;52.540;13.410;2022-09-09T10:14:22;100495.28;;;20.77;74.81
52625;BME280;38519;52.540;13.410;2022-09-09T10:19:21;100497.47;;;20.93;75.72
52625;BME280;38519;52.540;13.410;2022-09-09T10:27:20;100499.88;;;21.16;75.41
52625;BME280;38519;52.540;13.410;2022-09-09T10:29:58;100498.63;;;21.36;73.70
52625;BME280;38519;52.540;13.410;2022-09-09T10:32:33;100504.50;;;21.56;72.73
52625;BME280;38519;52.540;13.410;2022-09-09T10:42:34;100504.19;;;21.45;72.25
52625;BME280;38519;52.540;13.410;2022-09-09T10:55:13;100502.16;;;21.35;70.86
52625;BME280;38519;52.540;13.410;2022-09-09T10:57:50;100510.75;;;21.60;70.58
52625;BME280;38519;52.540;13.410;2022-09-09T11:00:23;100509.66;;;21.87;69.00
52625;BME280;38519;52.540;13.410;2022-09-09T11:03:23;100504.78;;;22.07;67.89
52625;BME280;38519;52.540;13.410;2022-09-09T11:08:14;100502.63;;;21.90;68.18
52625;BME280;38519;52.540;13.410;2022-09-09T11:10:44;100503.75;;;22.00;66.85
52625;BME280;38519;52.540;13.410;2022-09-09T11:18:41;100502.28;;;22.14;68.94
52625;BME280;38519;52.540;13.410;2022-09-09T11:21:15;100505.53;;;22.41;66.63
52625;BME280;38519;52.540;13.410;2022-09-09T11:23:48;100505.69;;;22.47;65.74
52625;BME280;38519;52.540;13.410;2022-09-09T11:26:20;100504.25;;;22.22;67.68
52625;BME280;38519;52.540;13.410;2022-09-09T11:31:34;100502.81;;;21.98;68.29
52625;BME280;38519;52.540;13.410;2022-09-09T11:41:48;100510.31;;;22.55;67.64
52625;BME280;38519;52.540;13.410;2022-09-09T11:44:18;100502.13;;;22.46;67.16
52625;BME280;38519;52.540;13.410;2022-09-09T11:46:46;100502.97;;;22.04;69.62
52625;BME280;38519;52.540;13.410;2022-09-09T11:52:12;100497.66;;;22.04;68.94
52625;BME280;38519;52.540;13.410;2022-09-09T11:54:48;100488.38;;;22.67;66.58
52625;BME280;38519;52.540;13.410;2022-09-09T11:59:59;100484.53;;;22.53;65.43
52625;BME280;38519;52.540;13.410;2022-09-09T12:02:26;100478.31;;;22.52;65.11
52625;BME280;38519;52.540;13.410;2022-09-09T12:09:56;100470.13;;;22.04;64.78
52625;BME280;38519;52.540;13.410;2022-09-09T12:17:45;100463.28;;;23.00;59.78
52625;BME280;38519;52.540;13.410;2022-09-09T12:20:22;100463.22;;;23.49;59.29
52625;BME280;38519;52.540;13.410;2022-09-09T12:30:46;100456.03;;;23.42;59.69
52625;BME280;38519;52.540;13.410;2022-09-09T12:33:16;100451.06;;;23.10;60.98
52625;BME280;38519;52.540;13.410;2022-09-09T12:35:43;100451.44;;;22.84;62.19
52625;BME280;38519;52.540;13.410;2022-09-09T12:38:12;100452.94;;;22.70;61.54
52625;BME280;38519;52.540;13.410;2022-09-09T12:40:39;100449.06;;;22.52;61.86
52625;BME280;38519;52.540;13.410;2022-09-09T12:46:01;100451.94;;;22.65;62.57
52625;BME280;38519;52.540;13.410;2022-09-09T12:48:32;100439.63;;;22.70;59.82
52625;BME280;38519;52.540;13.410;2022-09-09T12:50:59;100448.41;;;22.66;60.17
52625;BME280;38519;52.540;13.410;2022-09-09T12:53:32;100435.97;;;22.65;59.44
52625;BME280;38519;52.540;13.410;2022-09-09T12:56:00;100444.94;;;22.68;59.74
52625;BME280;38519;52.540;13.410;2022-09-09T12:58:27;100439.72;;;22.75;59.50
52625;BME280;38519;52.540;13.410;2022-09-09T13:00:58;100445.91;;;22.73;60.11
52625;BME280;38519;52.540;13.410;2022-09-09T13:03:25;100450.94;;;22.60;60.93
52625;BME280;38519;52.540;13.410;2022-09-09T13:05:52;100449.03;;;22.51;61.18
52625;BME280;38519;52.540;13.410;2022-09-09T13:08:18;100456.56;;;22.31;61.10
52625;BME280;38519;52.540;13.410;2022-09-09T13:10:49;100462.00;;;22.35;61.73
52625;BME280;38519;52.540;13.410;2022-09-09T13:13:22;100459.31;;;22.34;61.44
52625;BME280;38519;52.540;13.410;2022-09-09T13:15:56;100465.50;;;22.33;61.27
52625;BME280;38519;52.540;13.410;2022-09-09T13:18:22;100458.34;;;22.30;62.09
52625;BME280;38519;52.540;13.410;2022-09-09T13:20:48;100460.16;;;22.31;62.17
52625;BME280;38519;52.540;13.410;2022-09-09T13:23:15;100454.56;;;22.21;63.11
52625;BME280;38519;52.540;13.410;2022-09-09T13:25:40;100450.97;;;22.18;62.62
52625;BME280;38519;52.540;13.410;2022-09-09T13:28:18;100450.72;;;22.06;62.66
52625;BME280;38519;52.540;13.410;2022-09-09T13:30:54;100447.16;;;22.06;62.31
52625;BME280;38519;52.540;13.410;2022-09-09T13:33:22;100445.56;;;22.14;61.29
52625;BME280;38519;52.540;13.410;2022-09-09T13:35:49;100431.47;;;22.19;60.70
52625;BME280;38519;52.540;13.410;2022-09-09T13:38:16;100430.72;;;22.25;60.56
52625;BME280;38519;52.540;13.410;2022-09-09T13:40:52;100429.81;;;22.23;61.05
52625;BME280;38519;52.540;13.410;2022-09-09T13:43:20;100437.00;;;22.29;60.28
52625;BME280;38519;52.540;13.410;2022-09-09T13:45:52;100433.91;;;22.50;60.24
52625;BME280;38519;52.540;13.410;2022-09-09T13:48:18;100436.97;;;22.70;59.58
52625;BME280;38519;52.540;13.410;2022-09-09T13:50:53;100425.97;;;22.99;58.63
52625;BME280;38519;52.540;13.410;2022-09-09T13:53:18;100435.13;;;23.13;58.11
52625;BME280;38519;52.540;13.410;2022-09-09T13:55:44;100426.19;;;23.11;57.77
52625;BME280;38519;52.540;13.410;2022-09-09T13:58:14;100434.00;;;23.02;58.04
52625;BME280;38519;52.540;13.410;2022-09-09T14:00:40;100432.91;;;22.89;58.69
52625;BME280;38519;52.540;13.410;2022-09-09T14:03:06;100425.38;;;22.68;59.65
52625;BME280;38519;52.540;13.410;2022-09-09T14:05:32;100433.31;;;22.63;59.98
52625;BME280;38519;52.540;13.410;2022-09-09T14:07:59;100438.41;;;22.52;60.07
52625;BME280;38519;52.540;13.410;2022-09-09T14:10:26;100442.97;;;22.60;60.07
52625;BME280;38519;52.540;13.410;2022-09-09T14:12:51;100434.34;;;22.71;59.27
52625;BME280;38519;52.540;13.410;2022-09-09T14:15:17;100431.81;;;22.81;59.42
52625;BME280;38519;52.540;13.410;2022-09-09T14:17:43;100429.03;;;22.71;58.78
52625;BME280;38519;52.540;13.410;2022-09-09T14:20:09;100434.19;;;22.64;59.37
52625;BME280;38519;52.540;13.410;2022-09-09T14:22:37;100433.28;;;22.62;58.91
52625;BME280;38519;52.540;13.410;2022-09-09T14:25:04;100428.28;;;22.80;57.98
52625;BME280;38519;52.540;13.410;2022-09-09T14:27:30;100431.31;;;22.53;58.66
52625;BME280;38519;52.540;13.410;2022-09-09T14:29:55;100438.63;;;22.65;58.17
52625;BME280;38519;52.540;13.410;2022-09-09T14:32:22;100420.28;;;22.80;58.48
52625;BME280;38519;52.540;13.410;2022-09-09T14:34:48;100423.81;;;22.79;59.09
52625;BME280;38519;52.540;13.410;2022-09-09T14:37:16;100426.19;;;22.62;58.90
52625;BME280;38519;52.540;13.410;2022-09-09T14:39:42;100423.22;;;22.48;59.66
52625;BME280;38519;52.540;13.410;2022-09-09T14:42:12;100427.16;;;22.25;60.42
52625;BME280;38519;52.540;13.410;2022-09-09T14:44:38;100418.53;;;22.35;61.31
52625;BME280;38519;52.540;13.410;2022-09-09T14:47:07;100418.53;;;22.35;59.86
52625;BME280;38519;52.540;13.410;2022-09-09T14:49:36;100427.97;;;22.21;61.80
52625;BME280;38519;52.540;13.410;2022-09-09T14:52:03;100428.75;;;22.16;60.71
52625;BME280;38519;52.540;13.410;2022-09-09T14:54:29;100439.06;;;21.99;60.84
52625;BME280;38519;52.540;13.410;2022-09-09T14:56:55;100435.97;;;21.81;60.59
52625;BME280;38519;52.540;13.410;2022-09-09T14:59:21;100432.28;;;21.74;61.57
52625;BME280;38519;52.540;13.410;2022-09-09T15:01:47;100435.66;;;21.67;61.70
52625;BME280;38519;52.540;13.410;2022-09-09T15:04:12;100432.94;;;21.64;62.68